Upstream stations:
Downstream station:
SHEF ID: TALO2 Illinois River near Tahlequah, O
STATION TYPE:
Regulating: Stage = 11.00, Flow = 9049
STAGE RIV-FLOW BAT-LOAD
ft cfs volt
Ccp-Rev Ccp-Rev Ccp-Rev
(US/Central)
03/19 00:00 5.89 781 12.33
03/19 01:00 5.89 781 12.33
03/19 02:00 5.89 781 12.33
03/19 03:00 5.90 788 12.33
03/19 04:00 5.91 794 12.33
03/19 05:00 5.89 781 12.25
03/19 06:00 5.90 788 12.25
03/19 07:00 5.91 794 12.25
03/19 08:00 5.91 794 12.17
03/19 09:00 5.90 788 12.41
03/19 10:00 5.90 788 13.21
03/19 11:00 5.90 788 13.60
03/19 12:00 5.92 801 13.60
03/19 13:00 5.91 794 13.68
03/19 14:00 5.90 788 13.53
03/19 15:00 5.91 794 13.53
03/19 16:00 5.92 801 13.44
03/19 17:00 5.95 821 13.21
03/19 18:00 5.98 841 12.89
03/19 19:00 6.03 875 12.81
03/19 20:00 6.08 911 12.65
03/19 21:00 6.13 947 12.65
03/19 22:00 6.19 991 12.65
03/19 23:00 6.19 991 12.57